sensor_id;sensor_type;location;lat;lon;timestamp;P1;durP1;ratioP1;P2;durP2;ratioP2
45326;SDS011;31062;49.678;24.560;2022-10-16T00:01:39;11.45;;;5.72;;
45326;SDS011;31062;49.678;24.560;2022-10-16T00:04:06;8.15;;;5.68;;
45326;SDS011;31062;49.678;24.560;2022-10-16T00:06:33;9.70;;;5.63;;
45326;SDS011;31062;49.678;24.560;2022-10-16T00:08:59;8.18;;;5.18;;
45326;SDS011;31062;49.678;24.560;2022-10-16T00:11:28;8.65;;;5.28;;
45326;SDS011;31062;49.678;24.560;2022-10-16T00:14:00;14.40;;;5.28;;
45326;SDS011;31062;49.678;24.560;2022-10-16T00:16:28;8.30;;;5.32;;
45326;SDS011;31062;49.678;24.560;2022-10-16T00:18:55;11.05;;;5.55;;
45326;SDS011;31062;49.678;24.560;2022-10-16T00:21:24;9.13;;;5.15;;
45326;SDS011;31062;49.678;24.560;2022-10-16T00:24:11;8.75;;;5.53;;
45326;SDS011;31062;49.678;24.560;2022-10-16T00:26:38;15.30;;;6.03;;
45326;SDS011;31062;49.678;24.560;2022-10-16T00:29:06;9.60;;;5.45;;
45326;SDS011;31062;49.678;24.560;2022-10-16T00:31:33;9.25;;;5.63;;
45326;SDS011;31062;49.678;24.560;2022-10-16T00:34:00;9.48;;;5.22;;
45326;SDS011;31062;49.678;24.560;2022-10-16T00:36:27;14.13;;;4.68;;
45326;SDS011;31062;49.678;24.560;2022-10-16T00:38:55;8.05;;;4.88;;
45326;SDS011;31062;49.678;24.560;2022-10-16T00:41:32;13.73;;;5.90;;
45326;SDS011;31062;49.678;24.560;2022-10-16T00:44:00;9.05;;;5.47;;
45326;SDS011;31062;49.678;24.560;2022-10-16T00:46:33;8.98;;;5.45;;
45326;SDS011;31062;49.678;24.560;2022-10-16T00:49:10;11.32;;;4.93;;
45326;SDS011;31062;49.678;24.560;2022-10-16T00:51:40;9.02;;;5.15;;
45326;SDS011;31062;49.678;24.560;2022-10-16T00:54:09;9.55;;;4.90;;
45326;SDS011;31062;49.678;24.560;2022-10-16T00:56:39;7.88;;;4.63;;
45326;SDS011;31062;49.678;24.560;2022-10-16T00:59:11;8.75;;;5.78;;
45326;SDS011;31062;49.678;24.560;2022-10-16T01:01:46;13.13;;;5.20;;
45326;SDS011;31062;49.678;24.560;2022-10-16T01:04:13;9.35;;;5.57;;
45326;SDS011;31062;49.678;24.560;2022-10-16T01:06:46;7.93;;;4.75;;
45326;SDS011;31062;49.678;24.560;2022-10-16T01:09:28;15.45;;;5.28;;
45326;SDS011;31062;49.678;24.560;2022-10-16T01:14:39;7.47;;;4.97;;
45326;SDS011;31062;49.678;24.560;2022-10-16T01:17:17;18.73;;;5.05;;
45326;SDS011;31062;49.678;24.560;2022-10-16T01:22:54;7.47;;;4.60;;
45326;SDS011;31062;49.678;24.560;2022-10-16T01:25:30;7.22;;;5.05;;
45326;SDS011;31062;49.678;24.560;2022-10-16T01:28:06;11.18;;;4.70;;
45326;SDS011;31062;49.678;24.560;2022-10-16T01:30:38;9.52;;;4.53;;
45326;SDS011;31062;49.678;24.560;2022-10-16T01:33:10;6.97;;;4.60;;
45326;SDS011;31062;49.678;24.560;2022-10-16T01:35:46;8.07;;;5.10;;
45326;SDS011;31062;49.678;24.560;2022-10-16T01:38:40;6.78;;;4.68;;
45326;SDS011;31062;49.678;24.560;2022-10-16T01:41:15;9.70;;;4.38;;
45326;SDS011;31062;49.678;24.560;2022-10-16T01:44:08;6.07;;;4.45;;
45326;SDS011;31062;49.678;24.560;2022-10-16T01:49:05;10.75;;;5.13;;
45326;SDS011;31062;49.678;24.560;2022-10-16T01:51:34;7.32;;;4.55;;
45326;SDS011;31062;49.678;24.560;2022-10-16T01:54:04;6.85;;;4.63;;
45326;SDS011;31062;49.678;24.560;2022-10-16T01:56:34;10.40;;;4.75;;
45326;SDS011;31062;49.678;24.560;2022-10-16T01:59:07;5.45;;;4.35;;
45326;SDS011;31062;49.678;24.560;2022-10-16T02:01:38;11.70;;;5.07;;
45326;SDS011;31062;49.678;24.560;2022-10-16T02:04:11;10.00;;;4.80;;
45326;SDS011;31062;49.678;24.560;2022-10-16T02:06:42;9.90;;;4.72;;
45326;SDS011;31062;49.678;24.560;2022-10-16T02:09:10;11.80;;;5.22;;
45326;SDS011;31062;49.678;24.560;2022-10-16T02:11:37;7.97;;;4.43;;
45326;SDS011;31062;49.678;24.560;2022-10-16T02:14:04;9.07;;;5.15;;
45326;SDS011;31062;49.678;24.560;2022-10-16T02:16:40;8.77;;;4.80;;
45326;SDS011;31062;49.678;24.560;2022-10-16T02:19:11;6.55;;;4.80;;
45326;SDS011;31062;49.678;24.560;2022-10-16T02:21:41;11.52;;;5.07;;
45326;SDS011;31062;49.678;24.560;2022-10-16T02:27:11;12.23;;;6.32;;
45326;SDS011;31062;49.678;24.560;2022-10-16T02:29:49;9.20;;;5.20;;
45326;SDS011;31062;49.678;24.560;2022-10-16T02:32:27;8.90;;;4.90;;
45326;SDS011;31062;49.678;24.560;2022-10-16T02:34:57;7.65;;;4.72;;
45326;SDS011;31062;49.678;24.560;2022-10-16T02:37:26;7.60;;;4.90;;
45326;SDS011;31062;49.678;24.560;2022-10-16T02:39:55;9.95;;;5.00;;
45326;SDS011;31062;49.678;24.560;2022-10-16T02:42:28;7.65;;;4.53;;
45326;SDS011;31062;49.678;24.560;2022-10-16T02:47:23;8.70;;;4.90;;
45326;SDS011;31062;49.678;24.560;2022-10-16T02:49:50;11.52;;;4.95;;
45326;SDS011;31062;49.678;24.560;2022-10-16T02:52:17;6.93;;;3.92;;
45326;SDS011;31062;49.678;24.560;2022-10-16T02:54:43;10.48;;;5.47;;
45326;SDS011;31062;49.678;24.560;2022-10-16T02:57:10;11.77;;;4.63;;
45326;SDS011;31062;49.678;24.560;2022-10-16T02:59:38;11.02;;;4.97;;
45326;SDS011;31062;49.678;24.560;2022-10-16T03:02:05;7.25;;;4.47;;
45326;SDS011;31062;49.678;24.560;2022-10-16T03:04:32;6.55;;;4.70;;
45326;SDS011;31062;49.678;24.560;2022-10-16T03:06:59;7.32;;;4.90;;
45326;SDS011;31062;49.678;24.560;2022-10-16T03:09:25;8.95;;;5.07;;
45326;SDS011;31062;49.678;24.560;2022-10-16T03:11:52;7.00;;;4.43;;
45326;SDS011;31062;49.678;24.560;2022-10-16T03:14:19;6.03;;;4.38;;
45326;SDS011;31062;49.678;24.560;2022-10-16T03:16:46;6.85;;;4.68;;
45326;SDS011;31062;49.678;24.560;2022-10-16T03:19:13;7.53;;;4.60;;
45326;SDS011;31062;49.678;24.560;2022-10-16T03:21:40;11.40;;;5.03;;
45326;SDS011;31062;49.678;24.560;2022-10-16T03:24:07;12.82;;;4.63;;
45326;SDS011;31062;49.678;24.560;2022-10-16T03:26:34;15.45;;;5.35;;
45326;SDS011;31062;49.678;24.560;2022-10-16T03:29:01;19.45;;;7.75;;
45326;SDS011;31062;49.678;24.560;2022-10-16T03:31:30;28.50;;;9.15;;
45326;SDS011;31062;49.678;24.560;2022-10-16T03:33:56;19.20;;;8.73;;
45326;SDS011;31062;49.678;24.560;2022-10-16T03:36:24;22.83;;;8.57;;
45326;SDS011;31062;49.678;24.560;2022-10-16T03:38:50;15.38;;;7.47;;
45326;SDS011;31062;49.678;24.560;2022-10-16T03:41:17;11.32;;;6.72;;
45326;SDS011;31062;49.678;24.560;2022-10-16T03:43:44;13.45;;;6.90;;
45326;SDS011;31062;49.678;24.560;2022-10-16T03:46:11;14.77;;;8.23;;
45326;SDS011;31062;49.678;24.560;2022-10-16T03:48:38;16.33;;;8.90;;
45326;SDS011;31062;49.678;24.560;2022-10-16T03:51:06;11.63;;;7.43;;
45326;SDS011;31062;49.678;24.560;2022-10-16T03:53:34;12.70;;;7.95;;
45326;SDS011;31062;49.678;24.560;2022-10-16T03:56:01;15.30;;;7.45;;
45326;SDS011;31062;49.678;24.560;2022-10-16T03:58:27;13.88;;;7.80;;
45326;SDS011;31062;49.678;24.560;2022-10-16T04:00:55;18.30;;;8.73;;
45326;SDS011;31062;49.678;24.560;2022-10-16T04:03:21;16.98;;;8.50;;
45326;SDS011;31062;49.678;24.560;2022-10-16T04:05:49;14.38;;;7.97;;
45326;SDS011;31062;49.678;24.560;2022-10-16T04:08:16;28.02;;;10.65;;
45326;SDS011;31062;49.678;24.560;2022-10-16T04:10:44;25.98;;;11.10;;
45326;SDS011;31062;49.678;24.560;2022-10-16T04:13:11;37.05;;;14.10;;
45326;SDS011;31062;49.678;24.560;2022-10-16T04:15:39;42.83;;;15.73;;
45326;SDS011;31062;49.678;24.560;2022-10-16T04:18:06;38.05;;;12.93;;
45326;SDS011;31062;49.678;24.560;2022-10-16T04:20:33;35.63;;;13.18;;
45326;SDS011;31062;49.678;24.560;2022-10-16T04:23:00;29.77;;;11.98;;
45326;SDS011;31062;49.678;24.560;2022-10-16T04:25:27;30.67;;;12.10;;
45326;SDS011;31062;49.678;24.560;2022-10-16T04:27:54;27.70;;;11.60;;
45326;SDS011;31062;49.678;24.560;2022-10-16T04:30:22;33.78;;;13.48;;
45326;SDS011;31062;49.678;24.560;2022-10-16T04:32:50;43.38;;;16.58;;
45326;SDS011;31062;49.678;24.560;2022-10-16T04:35:18;29.65;;;12.63;;
45326;SDS011;31062;49.678;24.560;2022-10-16T04:37:47;27.15;;;10.95;;
45326;SDS011;31062;49.678;24.560;2022-10-16T04:40:15;21.50;;;10.25;;
45326;SDS011;31062;49.678;24.560;2022-10-16T04:42:42;22.52;;;10.05;;
45326;SDS011;31062;49.678;24.560;2022-10-16T04:45:09;14.07;;;8.40;;
45326;SDS011;31062;49.678;24.560;2022-10-16T04:47:41;21.45;;;8.35;;
45326;SDS011;31062;49.678;24.560;2022-10-16T04:50:08;9.90;;;6.97;;
45326;SDS011;31062;49.678;24.560;2022-10-16T04:52:36;11.77;;;8.13;;
45326;SDS011;31062;49.678;24.560;2022-10-16T04:55:03;10.50;;;7.28;;
45326;SDS011;31062;49.678;24.560;2022-10-16T04:57:30;9.48;;;6.40;;
45326;SDS011;31062;49.678;24.560;2022-10-16T04:59:57;13.13;;;6.18;;
45326;SDS011;31062;49.678;24.560;2022-10-16T05:02:24;14.02;;;5.50;;
45326;SDS011;31062;49.678;24.560;2022-10-16T05:04:51;12.10;;;5.57;;
45326;SDS011;31062;49.678;24.560;2022-10-16T05:07:18;9.38;;;5.47;;
45326;SDS011;31062;49.678;24.560;2022-10-16T05:09:45;13.18;;;5.88;;
45326;SDS011;31062;49.678;24.560;2022-10-16T05:12:12;11.85;;;5.75;;
45326;SDS011;31062;49.678;24.560;2022-10-16T05:14:39;9.30;;;5.28;;
45326;SDS011;31062;49.678;24.560;2022-10-16T05:17:06;8.10;;;5.50;;
45326;SDS011;31062;49.678;24.560;2022-10-16T05:19:32;12.55;;;5.55;;
45326;SDS011;31062;49.678;24.560;2022-10-16T05:22:00;12.80;;;5.43;;
45326;SDS011;31062;49.678;24.560;2022-10-16T05:24:27;12.77;;;5.57;;
45326;SDS011;31062;49.678;24.560;2022-10-16T05:26:54;11.98;;;5.63;;
45326;SDS011;31062;49.678;24.560;2022-10-16T05:29:21;9.82;;;5.78;;
45326;SDS011;31062;49.678;24.560;2022-10-16T05:31:50;12.38;;;6.13;;
45326;SDS011;31062;49.678;24.560;2022-10-16T05:34:19;10.38;;;6.63;;
45326;SDS011;31062;49.678;24.560;2022-10-16T05:36:47;16.23;;;6.55;;
45326;SDS011;31062;49.678;24.560;2022-10-16T05:39:14;9.55;;;6.13;;
45326;SDS011;31062;49.678;24.560;2022-10-16T05:41:43;9.65;;;6.22;;
45326;SDS011;31062;49.678;24.560;2022-10-16T05:44:10;13.43;;;5.65;;
45326;SDS011;31062;49.678;24.560;2022-10-16T05:46:38;11.68;;;6.13;;
45326;SDS011;31062;49.678;24.560;2022-10-16T05:49:06;9.02;;;5.85;;
45326;SDS011;31062;49.678;24.560;2022-10-16T05:51:34;8.60;;;6.13;;
45326;SDS011;31062;49.678;24.560;2022-10-16T05:54:01;9.90;;;5.75;;
45326;SDS011;31062;49.678;24.560;2022-10-16T05:56:28;9.90;;;6.10;;
45326;SDS011;31062;49.678;24.560;2022-10-16T05:58:55;12.25;;;5.65;;
45326;SDS011;31062;49.678;24.560;2022-10-16T06:01:23;30.92;;;6.95;;
45326;SDS011;31062;49.678;24.560;2022-10-16T06:03:51;15.15;;;6.43;;
45326;SDS011;31062;49.678;24.560;2022-10-16T06:06:23;15.95;;;7.28;;
45326;SDS011;31062;49.678;24.560;2022-10-16T06:08:55;17.02;;;6.43;;
45326;SDS011;31062;49.678;24.560;2022-10-16T06:11:25;10.38;;;6.30;;
45326;SDS011;31062;49.678;24.560;2022-10-16T06:13:55;17.33;;;5.67;;
45326;SDS011;31062;49.678;24.560;2022-10-16T06:16:24;15.52;;;6.28;;
45326;SDS011;31062;49.678;24.560;2022-10-16T06:18:53;7.70;;;5.53;;
45326;SDS011;31062;49.678;24.560;2022-10-16T06:21:23;12.00;;;5.55;;
45326;SDS011;31062;49.678;24.560;2022-10-16T06:23:52;11.20;;;5.90;;
45326;SDS011;31062;49.678;24.560;2022-10-16T06:26:21;9.77;;;6.13;;
45326;SDS011;31062;49.678;24.560;2022-10-16T06:28:50;11.48;;;5.70;;
45326;SDS011;31062;49.678;24.560;2022-10-16T06:31:18;6.00;;;4.53;;
45326;SDS011;31062;49.678;24.560;2022-10-16T06:33:45;7.28;;;4.32;;
45326;SDS011;31062;49.678;24.560;2022-10-16T06:36:17;8.48;;;5.05;;
45326;SDS011;31062;49.678;24.560;2022-10-16T06:38:44;8.07;;;5.20;;
45326;SDS011;31062;49.678;24.560;2022-10-16T06:41:15;10.32;;;5.03;;
45326;SDS011;31062;49.678;24.560;2022-10-16T06:43:44;8.55;;;4.90;;
45326;SDS011;31062;49.678;24.560;2022-10-16T06:46:12;8.02;;;4.30;;
45326;SDS011;31062;49.678;24.560;2022-10-16T06:48:41;9.85;;;4.90;;
45326;SDS011;31062;49.678;24.560;2022-10-16T06:51:10;10.55;;;4.65;;
45326;SDS011;31062;49.678;24.560;2022-10-16T06:53:39;12.32;;;5.35;;
45326;SDS011;31062;49.678;24.560;2022-10-16T06:56:29;8.23;;;5.20;;
45326;SDS011;31062;49.678;24.560;2022-10-16T06:58:58;9.80;;;5.35;;
45326;SDS011;31062;49.678;24.560;2022-10-16T07:01:25;9.65;;;4.97;;
45326;SDS011;31062;49.678;24.560;2022-10-16T07:03:53;6.43;;;5.13;;
45326;SDS011;31062;49.678;24.560;2022-10-16T07:06:21;10.07;;;5.30;;
45326;SDS011;31062;49.678;24.560;2022-10-16T07:08:49;7.88;;;4.82;;
45326;SDS011;31062;49.678;24.560;2022-10-16T07:11:18;8.85;;;5.60;;
45326;SDS011;31062;49.678;24.560;2022-10-16T07:13:48;9.05;;;5.70;;
45326;SDS011;31062;49.678;24.560;2022-10-16T07:16:23;14.75;;;5.18;;
45326;SDS011;31062;49.678;24.560;2022-10-16T07:18:53;8.88;;;5.35;;
45326;SDS011;31062;49.678;24.560;2022-10-16T07:21:26;10.48;;;5.90;;
45326;SDS011;31062;49.678;24.560;2022-10-16T07:23:57;17.00;;;6.38;;
45326;SDS011;31062;49.678;24.560;2022-10-16T07:26:26;7.45;;;5.05;;
45326;SDS011;31062;49.678;24.560;2022-10-16T07:28:55;7.22;;;4.72;;
45326;SDS011;31062;49.678;24.560;2022-10-16T07:31:24;10.00;;;5.50;;
45326;SDS011;31062;49.678;24.560;2022-10-16T07:33:53;15.38;;;5.57;;
45326;SDS011;31062;49.678;24.560;2022-10-16T07:36:22;9.38;;;5.57;;
45326;SDS011;31062;49.678;24.560;2022-10-16T07:38:50;7.22;;;5.18;;
45326;SDS011;31062;49.678;24.560;2022-10-16T07:41:22;9.32;;;5.75;;
45326;SDS011;31062;49.678;24.560;2022-10-16T07:43:50;9.75;;;5.53;;
45326;SDS011;31062;49.678;24.560;2022-10-16T07:46:19;7.55;;;5.53;;
45326;SDS011;31062;49.678;24.560;2022-10-16T07:48:48;8.80;;;5.97;;
45326;SDS011;31062;49.678;24.560;2022-10-16T07:51:16;9.30;;;5.55;;
45326;SDS011;31062;49.678;24.560;2022-10-16T07:53:52;9.20;;;5.53;;
45326;SDS011;31062;49.678;24.560;2022-10-16T07:56:19;8.63;;;5.55;;
45326;SDS011;31062;49.678;24.560;2022-10-16T07:58:47;10.20;;;5.88;;
45326;SDS011;31062;49.678;24.560;2022-10-16T08:01:17;15.65;;;6.20;;
45326;SDS011;31062;49.678;24.560;2022-10-16T08:03:49;8.02;;;5.50;;
45326;SDS011;31062;49.678;24.560;2022-10-16T08:06:18;10.27;;;5.43;;
45326;SDS011;31062;49.678;24.560;2022-10-16T08:08:53;13.15;;;7.30;;
45326;SDS011;31062;49.678;24.560;2022-10-16T08:11:22;15.32;;;7.35;;
45326;SDS011;31062;49.678;24.560;2022-10-16T08:13:50;14.10;;;6.75;;
45326;SDS011;31062;49.678;24.560;2022-10-16T08:16:21;13.05;;;6.03;;
45326;SDS011;31062;49.678;24.560;2022-10-16T08:18:48;9.20;;;6.07;;
45326;SDS011;31062;49.678;24.560;2022-10-16T08:21:21;10.98;;;6.57;;
45326;SDS011;31062;49.678;24.560;2022-10-16T08:23:50;9.40;;;6.60;;
45326;SDS011;31062;49.678;24.560;2022-10-16T08:26:24;10.98;;;6.25;;
45326;SDS011;31062;49.678;24.560;2022-10-16T08:28:51;11.18;;;6.07;;
45326;SDS011;31062;49.678;24.560;2022-10-16T08:31:20;10.73;;;5.90;;
45326;SDS011;31062;49.678;24.560;2022-10-16T08:33:47;10.82;;;5.97;;
45326;SDS011;31062;49.678;24.560;2022-10-16T08:36:15;11.82;;;5.60;;
45326;SDS011;31062;49.678;24.560;2022-10-16T08:38:43;8.98;;;5.82;;
45326;SDS011;31062;49.678;24.560;2022-10-16T08:41:17;12.52;;;7.30;;
45326;SDS011;31062;49.678;24.560;2022-10-16T08:44:01;10.80;;;5.97;;
45326;SDS011;31062;49.678;24.560;2022-10-16T08:46:48;13.50;;;7.13;;
45326;SDS011;31062;49.678;24.560;2022-10-16T08:49:18;12.88;;;6.30;;
45326;SDS011;31062;49.678;24.560;2022-10-16T08:51:45;13.57;;;5.70;;
45326;SDS011;31062;49.678;24.560;2022-10-16T08:54:32;11.48;;;6.50;;
45326;SDS011;31062;49.678;24.560;2022-10-16T08:57:17;19.23;;;6.67;;
45326;SDS011;31062;49.678;24.560;2022-10-16T08:59:49;10.10;;;6.07;;
45326;SDS011;31062;49.678;24.560;2022-10-16T09:05:02;11.65;;;5.90;;
45326;SDS011;31062;49.678;24.560;2022-10-16T09:07:49;17.92;;;7.47;;
45326;SDS011;31062;49.678;24.560;2022-10-16T09:13:09;15.88;;;6.78;;
45326;SDS011;31062;49.678;24.560;2022-10-16T09:15:40;17.48;;;7.10;;
45326;SDS011;31062;49.678;24.560;2022-10-16T09:21:15;8.13;;;5.60;;
45326;SDS011;31062;49.678;24.560;2022-10-16T09:23:46;16.92;;;6.43;;
45326;SDS011;31062;49.678;24.560;2022-10-16T09:26:15;11.55;;;6.10;;
45326;SDS011;31062;49.678;24.560;2022-10-16T09:28:43;13.85;;;6.95;;
45326;SDS011;31062;49.678;24.560;2022-10-16T09:31:19;15.23;;;6.78;;
45326;SDS011;31062;49.678;24.560;2022-10-16T09:33:50;13.38;;;8.88;;
45326;SDS011;31062;49.678;24.560;2022-10-16T09:36:21;8.15;;;5.93;;
45326;SDS011;31062;49.678;24.560;2022-10-16T09:39:00;16.40;;;6.05;;
45326;SDS011;31062;49.678;24.560;2022-10-16T09:41:34;16.53;;;7.10;;
45326;SDS011;31062;49.678;24.560;2022-10-16T09:44:04;13.98;;;6.50;;
45326;SDS011;31062;49.678;24.560;2022-10-16T09:46:43;16.20;;;6.60;;
45326;SDS011;31062;49.678;24.560;2022-10-16T09:49:23;19.45;;;6.53;;
45326;SDS011;31062;49.678;24.560;2022-10-16T09:54:30;22.30;;;7.63;;
45326;SDS011;31062;49.678;24.560;2022-10-16T09:57:06;10.80;;;5.43;;
45326;SDS011;31062;49.678;24.560;2022-10-16T09:59:45;11.57;;;6.43;;
45326;SDS011;31062;49.678;24.560;2022-10-16T10:02:13;14.88;;;6.57;;
45326;SDS011;31062;49.678;24.560;2022-10-16T10:04:44;9.52;;;6.63;;
45326;SDS011;31062;49.678;24.560;2022-10-16T10:07:17;12.00;;;6.25;;
45326;SDS011;31062;49.678;24.560;2022-10-16T10:09:47;17.70;;;6.55;;
45326;SDS011;31062;49.678;24.560;2022-10-16T10:12:25;13.05;;;6.50;;
45326;SDS011;31062;49.678;24.560;2022-10-16T10:14:55;10.00;;;6.10;;
45326;SDS011;31062;49.678;24.560;2022-10-16T10:17:27;11.00;;;6.00;;
45326;SDS011;31062;49.678;24.560;2022-10-16T10:19:59;12.95;;;5.85;;
45326;SDS011;31062;49.678;24.560;2022-10-16T10:22:44;12.65;;;6.65;;
45326;SDS011;31062;49.678;24.560;2022-10-16T10:30:14;12.63;;;6.38;;
45326;SDS011;31062;49.678;24.560;2022-10-16T10:33:25;16.55;;;5.60;;
45326;SDS011;31062;49.678;24.560;2022-10-16T10:38:44;15.18;;;6.60;;
45326;SDS011;31062;49.678;24.560;2022-10-16T10:55:40;6.97;;;4.53;;
45326;SDS011;31062;49.678;24.560;2022-10-16T11:01:09;9.20;;;4.72;;
45326;SDS011;31062;49.678;24.560;2022-10-16T11:09:31;7.07;;;4.95;;
45326;SDS011;31062;49.678;24.560;2022-10-16T11:12:22;15.32;;;5.38;;
45326;SDS011;31062;49.678;24.560;2022-10-16T11:15:05;6.25;;;4.43;;
45326;SDS011;31062;49.678;24.560;2022-10-16T11:17:44;9.65;;;5.10;;
45326;SDS011;31062;49.678;24.560;2022-10-16T11:22:51;7.03;;;5.47;;
45326;SDS011;31062;49.678;24.560;2022-10-16T11:25:24;7.65;;;4.65;;
45326;SDS011;31062;49.678;24.560;2022-10-16T11:30:29;6.28;;;4.55;;
45326;SDS011;31062;49.678;24.560;2022-10-16T11:53:03;8.68;;;5.10;;
45326;SDS011;31062;49.678;24.560;2022-10-16T11:55:58;5.88;;;4.85;;
45326;SDS011;31062;49.678;24.560;2022-10-16T11:58:26;7.03;;;5.13;;
45326;SDS011;31062;49.678;24.560;2022-10-16T12:06:45;13.20;;;5.63;;
45326;SDS011;31062;49.678;24.560;2022-10-16T12:09:27;6.50;;;4.28;;
45326;SDS011;31062;49.678;24.560;2022-10-16T12:11:57;5.57;;;4.00;;
45326;SDS011;31062;49.678;24.560;2022-10-16T12:14:35;11.00;;;4.97;;
45326;SDS011;31062;49.678;24.560;2022-10-16T12:17:34;6.50;;;4.68;;
45326;SDS011;31062;49.678;24.560;2022-10-16T12:22:41;6.70;;;4.57;;
45326;SDS011;31062;49.678;24.560;2022-10-16T12:25:53;7.15;;;4.72;;
45326;SDS011;31062;49.678;24.560;2022-10-16T12:30:55;6.70;;;5.05;;
45326;SDS011;31062;49.678;24.560;2022-10-16T12:33:32;8.73;;;5.45;;
45326;SDS011;31062;49.678;24.560;2022-10-16T12:36:02;7.13;;;5.25;;
45326;SDS011;31062;49.678;24.560;2022-10-16T12:38:48;17.10;;;6.95;;
45326;SDS011;31062;49.678;24.560;2022-10-16T12:41:59;6.32;;;4.82;;
45326;SDS011;31062;49.678;24.560;2022-10-16T12:44:21;11.65;;;6.40;;
45326;SDS011;31062;49.678;24.560;2022-10-16T12:46:50;10.45;;;7.60;;
45326;SDS011;31062;49.678;24.560;2022-10-16T12:49:21;14.82;;;6.97;;
45326;SDS011;31062;49.678;24.560;2022-10-16T12:51:59;7.10;;;5.30;;
45326;SDS011;31062;49.678;24.560;2022-10-16T12:54:30;6.05;;;4.88;;
45326;SDS011;31062;49.678;24.560;2022-10-16T13:05:02;8.93;;;4.70;;
45326;SDS011;31062;49.678;24.560;2022-10-16T13:15:35;7.35;;;4.72;;
45326;SDS011;31062;49.678;24.560;2022-10-16T13:23:33;6.95;;;4.72;;
45326;SDS011;31062;49.678;24.560;2022-10-16T13:28:45;8.57;;;4.82;;
45326;SDS011;31062;49.678;24.560;2022-10-16T13:31:22;11.90;;;5.25;;
45326;SDS011;31062;49.678;24.560;2022-10-16T13:33:52;8.70;;;4.55;;
45326;SDS011;31062;49.678;24.560;2022-10-16T13:36:29;6.22;;;4.35;;
45326;SDS011;31062;49.678;24.560;2022-10-16T13:39:12;11.02;;;4.30;;
45326;SDS011;31062;49.678;24.560;2022-10-16T13:41:43;4.97;;;3.90;;
45326;SDS011;31062;49.678;24.560;2022-10-16T13:44:18;9.45;;;4.20;;
45326;SDS011;31062;49.678;24.560;2022-10-16T13:52:41;11.65;;;4.55;;
45326;SDS011;31062;49.678;24.560;2022-10-16T13:55:11;10.10;;;4.80;;
45326;SDS011;31062;49.678;24.560;2022-10-16T13:57:39;6.60;;;4.28;;
45326;SDS011;31062;49.678;24.560;2022-10-16T14:00:25;15.23;;;4.75;;
45326;SDS011;31062;49.678;24.560;2022-10-16T14:02:58;11.53;;;5.13;;
45326;SDS011;31062;49.678;24.560;2022-10-16T14:05:30;10.90;;;5.53;;
45326;SDS011;31062;49.678;24.560;2022-10-16T14:07:57;8.18;;;5.43;;
45326;SDS011;31062;49.678;24.560;2022-10-16T14:10:26;6.80;;;4.93;;
45326;SDS011;31062;49.678;24.560;2022-10-16T14:15:24;7.05;;;5.55;;
45326;SDS011;31062;49.678;24.560;2022-10-16T14:17:52;9.00;;;4.50;;
45326;SDS011;31062;49.678;24.560;2022-10-16T14:20:20;5.45;;;4.43;;
45326;SDS011;31062;49.678;24.560;2022-10-16T14:23:02;9.43;;;5.15;;
45326;SDS011;31062;49.678;24.560;2022-10-16T14:25:32;9.48;;;4.13;;
45326;SDS011;31062;49.678;24.560;2022-10-16T14:30:36;6.18;;;4.55;;
45326;SDS011;31062;49.678;24.560;2022-10-16T14:33:06;7.47;;;4.82;;
45326;SDS011;31062;49.678;24.560;2022-10-16T14:35:47;7.38;;;4.68;;
45326;SDS011;31062;49.678;24.560;2022-10-16T14:41:49;6.75;;;5.55;;
45326;SDS011;31062;49.678;24.560;2022-10-16T14:44:18;18.90;;;7.28;;
45326;SDS011;31062;49.678;24.560;2022-10-16T14:46:47;9.45;;;6.57;;
45326;SDS011;31062;49.678;24.560;2022-10-16T14:49:18;15.45;;;5.70;;
45326;SDS011;31062;49.678;24.560;2022-10-16T14:51:48;11.88;;;6.32;;
45326;SDS011;31062;49.678;24.560;2022-10-16T14:54:17;10.30;;;6.07;;
45326;SDS011;31062;49.678;24.560;2022-10-16T14:59:30;13.88;;;6.97;;
45326;SDS011;31062;49.678;24.560;2022-10-16T15:02:08;16.75;;;11.02;;
45326;SDS011;31062;49.678;24.560;2022-10-16T15:04:45;24.88;;;11.52;;
45326;SDS011;31062;49.678;24.560;2022-10-16T15:07:13;23.63;;;11.05;;
45326;SDS011;31062;49.678;24.560;2022-10-16T15:09:40;18.35;;;10.73;;
45326;SDS011;31062;49.678;24.560;2022-10-16T15:12:15;22.13;;;9.75;;
45326;SDS011;31062;49.678;24.560;2022-10-16T15:14:43;17.75;;;8.95;;
45326;SDS011;31062;49.678;24.560;2022-10-16T15:17:11;18.60;;;9.10;;
45326;SDS011;31062;49.678;24.560;2022-10-16T15:19:42;13.45;;;9.93;;
45326;SDS011;31062;49.678;24.560;2022-10-16T15:22:10;17.30;;;7.82;;
45326;SDS011;31062;49.678;24.560;2022-10-16T15:24:39;9.85;;;6.45;;
45326;SDS011;31062;49.678;24.560;2022-10-16T15:27:06;13.52;;;6.10;;
45326;SDS011;31062;49.678;24.560;2022-10-16T15:29:33;11.57;;;5.47;;
45326;SDS011;31062;49.678;24.560;2022-10-16T15:32:00;12.13;;;7.45;;
45326;SDS011;31062;49.678;24.560;2022-10-16T15:34:28;13.60;;;7.00;;
45326;SDS011;31062;49.678;24.560;2022-10-16T15:36:57;9.80;;;6.13;;
45326;SDS011;31062;49.678;24.560;2022-10-16T15:39:24;17.25;;;10.20;;
45326;SDS011;31062;49.678;24.560;2022-10-16T15:41:51;15.75;;;10.55;;
45326;SDS011;31062;49.678;24.560;2022-10-16T15:44:20;11.13;;;9.52;;
45326;SDS011;31062;49.678;24.560;2022-10-16T15:46:50;17.77;;;10.15;;
45326;SDS011;31062;49.678;24.560;2022-10-16T15:49:21;33.35;;;13.13;;
45326;SDS011;31062;49.678;24.560;2022-10-16T15:51:50;23.00;;;12.07;;
45326;SDS011;31062;49.678;24.560;2022-10-16T15:54:19;22.25;;;10.35;;
45326;SDS011;31062;49.678;24.560;2022-10-16T15:56:48;15.68;;;9.95;;
45326;SDS011;31062;49.678;24.560;2022-10-16T15:59:15;17.90;;;10.55;;
45326;SDS011;31062;49.678;24.560;2022-10-16T16:01:43;17.33;;;10.50;;
45326;SDS011;31062;49.678;24.560;2022-10-16T16:04:10;20.63;;;11.60;;
45326;SDS011;31062;49.678;24.560;2022-10-16T16:06:57;19.92;;;11.65;;
45326;SDS011;31062;49.678;24.560;2022-10-16T16:09:24;23.55;;;11.07;;
45326;SDS011;31062;49.678;24.560;2022-10-16T16:11:51;24.67;;;13.10;;
45326;SDS011;31062;49.678;24.560;2022-10-16T16:14:19;25.65;;;11.90;;
45326;SDS011;31062;49.678;24.560;2022-10-16T16:16:46;19.30;;;12.32;;
45326;SDS011;31062;49.678;24.560;2022-10-16T16:19:13;28.85;;;13.70;;
45326;SDS011;31062;49.678;24.560;2022-10-16T16:21:43;20.63;;;13.88;;
45326;SDS011;31062;49.678;24.560;2022-10-16T16:24:12;24.40;;;13.63;;
45326;SDS011;31062;49.678;24.560;2022-10-16T16:26:40;21.10;;;12.35;;
45326;SDS011;31062;49.678;24.560;2022-10-16T16:29:13;20.88;;;13.73;;
45326;SDS011;31062;49.678;24.560;2022-10-16T16:31:42;28.35;;;12.55;;
45326;SDS011;31062;49.678;24.560;2022-10-16T16:34:14;24.95;;;12.93;;
45326;SDS011;31062;49.678;24.560;2022-10-16T16:36:45;17.98;;;12.80;;
45326;SDS011;31062;49.678;24.560;2022-10-16T16:39:14;32.38;;;16.75;;
45326;SDS011;31062;49.678;24.560;2022-10-16T16:41:42;27.70;;;15.23;;
45326;SDS011;31062;49.678;24.560;2022-10-16T16:44:12;25.45;;;15.02;;
45326;SDS011;31062;49.678;24.560;2022-10-16T16:46:41;23.05;;;13.63;;
45326;SDS011;31062;49.678;24.560;2022-10-16T16:49:11;17.55;;;11.70;;
45326;SDS011;31062;49.678;24.560;2022-10-16T16:51:39;19.70;;;11.85;;
45326;SDS011;31062;49.678;24.560;2022-10-16T16:54:06;24.13;;;12.02;;
45326;SDS011;31062;49.678;24.560;2022-10-16T16:56:34;24.35;;;12.18;;
45326;SDS011;31062;49.678;24.560;2022-10-16T16:59:02;29.10;;;14.30;;
45326;SDS011;31062;49.678;24.560;2022-10-16T17:01:32;25.15;;;11.90;;